Terminal Aerodrome Forecast
Issued by NWS Charleston, SC

Home | Current Version | Previous Version | Text Only | Print | Product List | Glossary On
Versions: 1 2 3 4 5 6 7 8 9 10 11 12 13 14 15 16 17 18 19 20 21 22 23 24 25 26
798
FTUS42 KCHS 201120
TAFCHS
TAF
KCHS 201120Z 2012/2112 19004KT P6SM BKN010 BKN030
      TEMPO 2012/2014 SCT015 BKN035
     FM201400 19008KT P6SM VCSH OVC045
     FM202100 18009KT P6SM OVC035 PROB30 2021/2103 5SM -SHRA OVC035
     FM210300 17003KT P6SM SCT025 BKN040=

USA.gov is the U.S. government's official web portal to all federal, state and local government web resources and services.